Mammoth, Pennsylvania
Current Conditions -  °F | °C
As of 10:50 AM on Friday 21 Nov 2014 (Local Time) from KLBE Reporting Station
Broken Clouds Broken Clouds  
Wind Chill: 12°   Ceiling: 3500
Heat Index: 23°   Visibility: 15mi
Dew Point: 10°   Wind: 12mph
Humidity: 59%   Direction: 300°WNW
Pressure: 30.46"   Gusts: NA
Location:  40.2°N, 79.46°W
Report Text: KLBE 211550Z 30010KT 15SM BKN035 BKN045 M05/M12 A3046
Loading
Personal Weather Stations






























Interactive Weather Map New forecast layout! Learn more

10-Day Weather Forecast

Advertisements
Track Severe Weather on mobile